sensor_id;sensor_type;location;lat;lon;timestamp;temperature;humidity
24638;DHT22;12773;50.162;8.548;2022-10-22T00:01:00;16.90;99.90
24638;DHT22;12773;50.162;8.548;2022-10-22T00:03:49;17.00;99.90
24638;DHT22;12773;50.162;8.548;2022-10-22T00:06:37;17.10;99.90
24638;DHT22;12773;50.162;8.548;2022-10-22T00:09:24;17.00;99.90
24638;DHT22;12773;50.162;8.548;2022-10-22T00:12:13;17.10;99.90
24638;DHT22;12773;50.162;8.548;2022-10-22T00:15:02;17.10;99.90
24638;DHT22;12773;50.162;8.548;2022-10-22T00:17:50;17.20;99.90
24638;DHT22;12773;50.162;8.548;2022-10-22T00:20:37;17.20;99.90
24638;DHT22;12773;50.162;8.548;2022-10-22T00:23:25;17.20;99.90
24638;DHT22;12773;50.162;8.548;2022-10-22T00:26:13;17.10;99.90
24638;DHT22;12773;50.162;8.548;2022-10-22T00:29:00;17.10;99.90
24638;DHT22;12773;50.162;8.548;2022-10-22T00:31:47;17.10;99.90
24638;DHT22;12773;50.162;8.548;2022-10-22T00:34:36;17.10;99.90
24638;DHT22;12773;50.162;8.548;2022-10-22T00:37:23;17.00;99.90
24638;DHT22;12773;50.162;8.548;2022-10-22T00:40:11;17.00;99.90
24638;DHT22;12773;50.162;8.548;2022-10-22T00:42:58;16.90;99.90
24638;DHT22;12773;50.162;8.548;2022-10-22T00:45:46;16.80;99.90
24638;DHT22;12773;50.162;8.548;2022-10-22T00:48:33;16.90;99.90
24638;DHT22;12773;50.162;8.548;2022-10-22T00:51:23;16.80;99.90
24638;DHT22;12773;50.162;8.548;2022-10-22T00:54:11;16.70;99.90
24638;DHT22;12773;50.162;8.548;2022-10-22T00:57:00;16.70;99.90
24638;DHT22;12773;50.162;8.548;2022-10-22T00:59:47;16.70;99.90
24638;DHT22;12773;50.162;8.548;2022-10-22T01:02:35;16.70;99.90
24638;DHT22;12773;50.162;8.548;2022-10-22T01:05:28;16.80;99.90
24638;DHT22;12773;50.162;8.548;2022-10-22T01:08:21;16.80;99.90
24638;DHT22;12773;50.162;8.548;2022-10-22T01:11:16;16.90;99.90
24638;DHT22;12773;50.162;8.548;2022-10-22T01:17:46;16.70;99.90
24638;DHT22;12773;50.162;8.548;2022-10-22T01:21:07;16.70;99.90
24638;DHT22;12773;50.162;8.548;2022-10-22T01:24:08;16.60;99.90
24638;DHT22;12773;50.162;8.548;2022-10-22T01:27:19;16.70;99.90
24638;DHT22;12773;50.162;8.548;2022-10-22T01:30:05;16.60;99.90
24638;DHT22;12773;50.162;8.548;2022-10-22T01:32:57;16.70;99.90
24638;DHT22;12773;50.162;8.548;2022-10-22T01:35:44;16.80;99.90
24638;DHT22;12773;50.162;8.548;2022-10-22T01:38:32;16.80;99.90
24638;DHT22;12773;50.162;8.548;2022-10-22T01:41:19;16.80;99.90
24638;DHT22;12773;50.162;8.548;2022-10-22T01:44:23;16.80;99.90
24638;DHT22;12773;50.162;8.548;2022-10-22T01:47:27;16.90;99.90
24638;DHT22;12773;50.162;8.548;2022-10-22T01:53:31;16.60;99.90
24638;DHT22;12773;50.162;8.548;2022-10-22T01:59:40;16.40;99.90
24638;DHT22;12773;50.162;8.548;2022-10-22T02:02:39;16.30;99.90
24638;DHT22;12773;50.162;8.548;2022-10-22T02:05:36;16.30;99.90
24638;DHT22;12773;50.162;8.548;2022-10-22T02:08:29;16.30;99.90
24638;DHT22;12773;50.162;8.548;2022-10-22T02:11:18;16.30;99.90
24638;DHT22;12773;50.162;8.548;2022-10-22T02:14:07;16.40;99.90
24638;DHT22;12773;50.162;8.548;2022-10-22T02:16:56;16.40;99.90
24638;DHT22;12773;50.162;8.548;2022-10-22T02:19:53;16.40;99.90
24638;DHT22;12773;50.162;8.548;2022-10-22T02:22:41;16.40;99.90
24638;DHT22;12773;50.162;8.548;2022-10-22T02:25:34;16.40;99.90
24638;DHT22;12773;50.162;8.548;2022-10-22T02:28:24;16.40;99.90
24638;DHT22;12773;50.162;8.548;2022-10-22T02:31:18;16.30;99.90
24638;DHT22;12773;50.162;8.548;2022-10-22T02:34:07;16.30;99.90
24638;DHT22;12773;50.162;8.548;2022-10-22T02:36:57;16.20;99.90
24638;DHT22;12773;50.162;8.548;2022-10-22T02:39:45;16.20;99.90
24638;DHT22;12773;50.162;8.548;2022-10-22T02:42:32;16.20;99.90
24638;DHT22;12773;50.162;8.548;2022-10-22T02:45:20;16.20;99.90
24638;DHT22;12773;50.162;8.548;2022-10-22T02:48:08;16.20;99.90
24638;DHT22;12773;50.162;8.548;2022-10-22T02:50:55;16.10;99.90
24638;DHT22;12773;50.162;8.548;2022-10-22T02:53:43;16.10;99.90
24638;DHT22;12773;50.162;8.548;2022-10-22T02:56:31;16.30;99.90
24638;DHT22;12773;50.162;8.548;2022-10-22T02:59:18;16.30;99.90
24638;DHT22;12773;50.162;8.548;2022-10-22T03:02:05;16.40;99.90
24638;DHT22;12773;50.162;8.548;2022-10-22T03:04:53;16.50;99.90
24638;DHT22;12773;50.162;8.548;2022-10-22T03:07:40;16.60;99.90
24638;DHT22;12773;50.162;8.548;2022-10-22T03:10:28;16.60;99.90
24638;DHT22;12773;50.162;8.548;2022-10-22T03:13:15;16.80;99.90
24638;DHT22;12773;50.162;8.548;2022-10-22T03:16:03;16.80;99.90
24638;DHT22;12773;50.162;8.548;2022-10-22T03:18:50;16.90;99.90
24638;DHT22;12773;50.162;8.548;2022-10-22T03:21:49;17.00;99.90
24638;DHT22;12773;50.162;8.548;2022-10-22T03:24:41;17.00;99.90
24638;DHT22;12773;50.162;8.548;2022-10-22T03:27:25;17.10;99.90
24638;DHT22;12773;50.162;8.548;2022-10-22T03:30:14;17.20;99.90
24638;DHT22;12773;50.162;8.548;2022-10-22T03:33:01;17.20;99.90
24638;DHT22;12773;50.162;8.548;2022-10-22T03:35:49;17.10;99.90
24638;DHT22;12773;50.162;8.548;2022-10-22T03:38:37;17.10;99.90
24638;DHT22;12773;50.162;8.548;2022-10-22T03:41:25;17.10;99.90
24638;DHT22;12773;50.162;8.548;2022-10-22T03:44:15;17.20;99.90
24638;DHT22;12773;50.162;8.548;2022-10-22T03:47:03;17.30;99.90
24638;DHT22;12773;50.162;8.548;2022-10-22T03:49:51;17.20;99.90
24638;DHT22;12773;50.162;8.548;2022-10-22T03:52:39;17.30;99.90
24638;DHT22;12773;50.162;8.548;2022-10-22T03:55:26;17.30;99.90
24638;DHT22;12773;50.162;8.548;2022-10-22T03:58:14;17.30;99.90
24638;DHT22;12773;50.162;8.548;2022-10-22T04:01:09;17.30;99.90
24638;DHT22;12773;50.162;8.548;2022-10-22T04:03:57;17.20;99.90
24638;DHT22;12773;50.162;8.548;2022-10-22T04:06:45;17.30;99.90
24638;DHT22;12773;50.162;8.548;2022-10-22T04:09:33;17.30;99.90
24638;DHT22;12773;50.162;8.548;2022-10-22T04:12:20;17.30;99.90
24638;DHT22;12773;50.162;8.548;2022-10-22T04:15:11;17.20;99.90
24638;DHT22;12773;50.162;8.548;2022-10-22T04:17:59;17.00;99.90
24638;DHT22;12773;50.162;8.548;2022-10-22T04:20:46;16.80;99.90
24638;DHT22;12773;50.162;8.548;2022-10-22T04:23:34;16.50;99.90
24638;DHT22;12773;50.162;8.548;2022-10-22T04:26:21;16.30;99.90
24638;DHT22;12773;50.162;8.548;2022-10-22T04:29:09;16.30;99.90
24638;DHT22;12773;50.162;8.548;2022-10-22T04:31:58;16.20;99.90
24638;DHT22;12773;50.162;8.548;2022-10-22T04:34:45;16.10;99.90
24638;DHT22;12773;50.162;8.548;2022-10-22T04:37:33;16.10;99.90
24638;DHT22;12773;50.162;8.548;2022-10-22T04:40:20;16.00;99.90
24638;DHT22;12773;50.162;8.548;2022-10-22T04:43:08;16.00;99.90
24638;DHT22;12773;50.162;8.548;2022-10-22T04:45:59;16.10;99.90
24638;DHT22;12773;50.162;8.548;2022-10-22T04:48:47;15.90;99.90
24638;DHT22;12773;50.162;8.548;2022-10-22T04:51:34;15.90;99.90
24638;DHT22;12773;50.162;8.548;2022-10-22T04:54:22;15.90;99.90
24638;DHT22;12773;50.162;8.548;2022-10-22T04:57:10;15.90;99.90
24638;DHT22;12773;50.162;8.548;2022-10-22T04:59:59;15.80;99.90
24638;DHT22;12773;50.162;8.548;2022-10-22T05:02:50;15.80;99.90
24638;DHT22;12773;50.162;8.548;2022-10-22T05:05:37;15.80;99.90
24638;DHT22;12773;50.162;8.548;2022-10-22T05:08:24;15.80;99.90
24638;DHT22;12773;50.162;8.548;2022-10-22T05:11:14;15.70;99.90
24638;DHT22;12773;50.162;8.548;2022-10-22T05:14:04;15.70;99.90
24638;DHT22;12773;50.162;8.548;2022-10-22T05:16:53;15.70;99.90
24638;DHT22;12773;50.162;8.548;2022-10-22T05:19:40;15.70;99.90
24638;DHT22;12773;50.162;8.548;2022-10-22T05:22:27;15.70;99.90
24638;DHT22;12773;50.162;8.548;2022-10-22T05:25:15;15.70;99.90
24638;DHT22;12773;50.162;8.548;2022-10-22T05:28:02;15.70;99.90
24638;DHT22;12773;50.162;8.548;2022-10-22T05:30:57;15.80;99.90
24638;DHT22;12773;50.162;8.548;2022-10-22T05:33:46;15.80;99.90
24638;DHT22;12773;50.162;8.548;2022-10-22T05:36:33;15.80;99.90
24638;DHT22;12773;50.162;8.548;2022-10-22T05:39:20;15.80;99.90
24638;DHT22;12773;50.162;8.548;2022-10-22T05:42:08;15.70;99.90
24638;DHT22;12773;50.162;8.548;2022-10-22T05:44:55;15.60;99.90
24638;DHT22;12773;50.162;8.548;2022-10-22T05:47:43;15.70;99.90
24638;DHT22;12773;50.162;8.548;2022-10-22T05:50:31;15.60;99.90
24638;DHT22;12773;50.162;8.548;2022-10-22T05:53:18;15.70;99.90
24638;DHT22;12773;50.162;8.548;2022-10-22T05:56:13;15.70;99.90
24638;DHT22;12773;50.162;8.548;2022-10-22T05:59:01;15.70;99.90
24638;DHT22;12773;50.162;8.548;2022-10-22T06:01:48;15.80;99.90
24638;DHT22;12773;50.162;8.548;2022-10-22T06:04:35;15.90;99.90
24638;DHT22;12773;50.162;8.548;2022-10-22T06:07:22;15.90;99.90
24638;DHT22;12773;50.162;8.548;2022-10-22T06:10:18;15.80;99.90
24638;DHT22;12773;50.162;8.548;2022-10-22T06:13:06;15.80;99.90
24638;DHT22;12773;50.162;8.548;2022-10-22T06:15:54;15.80;99.90
24638;DHT22;12773;50.162;8.548;2022-10-22T06:18:41;15.90;99.90
24638;DHT22;12773;50.162;8.548;2022-10-22T06:21:30;15.80;99.90
24638;DHT22;12773;50.162;8.548;2022-10-22T06:24:17;15.80;99.90
24638;DHT22;12773;50.162;8.548;2022-10-22T06:27:04;15.70;99.90
24638;DHT22;12773;50.162;8.548;2022-10-22T06:29:51;15.70;99.90
24638;DHT22;12773;50.162;8.548;2022-10-22T06:32:39;15.60;99.90
24638;DHT22;12773;50.162;8.548;2022-10-22T06:35:26;15.50;99.90
24638;DHT22;12773;50.162;8.548;2022-10-22T06:38:14;15.40;99.90
24638;DHT22;12773;50.162;8.548;2022-10-22T06:41:06;15.40;99.90
24638;DHT22;12773;50.162;8.548;2022-10-22T06:43:54;15.40;99.90
24638;DHT22;12773;50.162;8.548;2022-10-22T06:46:42;15.50;99.90
24638;DHT22;12773;50.162;8.548;2022-10-22T06:49:30;15.50;99.90
24638;DHT22;12773;50.162;8.548;2022-10-22T06:52:17;15.60;99.90
24638;DHT22;12773;50.162;8.548;2022-10-22T06:55:05;15.70;99.90
24638;DHT22;12773;50.162;8.548;2022-10-22T06:57:53;15.90;99.90
24638;DHT22;12773;50.162;8.548;2022-10-22T07:00:40;15.90;99.90
24638;DHT22;12773;50.162;8.548;2022-10-22T07:03:28;15.80;99.90
24638;DHT22;12773;50.162;8.548;2022-10-22T07:06:15;15.90;99.90
24638;DHT22;12773;50.162;8.548;2022-10-22T07:09:03;15.90;99.90
24638;DHT22;12773;50.162;8.548;2022-10-22T07:11:50;15.90;99.90
24638;DHT22;12773;50.162;8.548;2022-10-22T07:14:38;15.90;99.90
24638;DHT22;12773;50.162;8.548;2022-10-22T07:17:24;15.90;99.90
24638;DHT22;12773;50.162;8.548;2022-10-22T07:20:12;15.90;99.90
24638;DHT22;12773;50.162;8.548;2022-10-22T07:22:59;15.90;99.90
24638;DHT22;12773;50.162;8.548;2022-10-22T07:25:46;15.90;99.90
24638;DHT22;12773;50.162;8.548;2022-10-22T07:28:35;15.90;99.90
24638;DHT22;12773;50.162;8.548;2022-10-22T07:31:23;15.80;99.90
24638;DHT22;12773;50.162;8.548;2022-10-22T07:34:11;15.70;99.90
24638;DHT22;12773;50.162;8.548;2022-10-22T07:36:58;15.70;99.90
24638;DHT22;12773;50.162;8.548;2022-10-22T07:39:46;15.70;99.90
24638;DHT22;12773;50.162;8.548;2022-10-22T07:42:33;15.60;99.90
24638;DHT22;12773;50.162;8.548;2022-10-22T07:45:20;15.50;99.90
24638;DHT22;12773;50.162;8.548;2022-10-22T07:48:08;15.60;99.90
24638;DHT22;12773;50.162;8.548;2022-10-22T07:50:55;15.70;99.90
24638;DHT22;12773;50.162;8.548;2022-10-22T07:53:43;15.60;99.90
24638;DHT22;12773;50.162;8.548;2022-10-22T07:56:31;15.60;99.90
24638;DHT22;12773;50.162;8.548;2022-10-22T07:59:18;15.70;99.90
24638;DHT22;12773;50.162;8.548;2022-10-22T08:02:06;15.90;99.90
24638;DHT22;12773;50.162;8.548;2022-10-22T08:04:54;16.10;99.90
24638;DHT22;12773;50.162;8.548;2022-10-22T08:07:42;16.20;99.90
24638;DHT22;12773;50.162;8.548;2022-10-22T08:10:30;16.30;99.90
24638;DHT22;12773;50.162;8.548;2022-10-22T08:13:18;16.20;99.90
24638;DHT22;12773;50.162;8.548;2022-10-22T08:16:05;16.10;99.90
24638;DHT22;12773;50.162;8.548;2022-10-22T08:18:53;16.20;99.90
24638;DHT22;12773;50.162;8.548;2022-10-22T08:21:40;16.00;99.90
24638;DHT22;12773;50.162;8.548;2022-10-22T08:24:28;16.10;99.90
24638;DHT22;12773;50.162;8.548;2022-10-22T08:27:15;16.10;99.90
24638;DHT22;12773;50.162;8.548;2022-10-22T08:30:04;16.30;99.90
24638;DHT22;12773;50.162;8.548;2022-10-22T08:32:51;16.30;99.90
24638;DHT22;12773;50.162;8.548;2022-10-22T08:35:39;16.30;99.90
24638;DHT22;12773;50.162;8.548;2022-10-22T08:38:26;16.50;99.90
24638;DHT22;12773;50.162;8.548;2022-10-22T08:41:19;16.60;99.90
24638;DHT22;12773;50.162;8.548;2022-10-22T08:44:41;16.70;99.90
24638;DHT22;12773;50.162;8.548;2022-10-22T08:50:22;17.20;99.90
24638;DHT22;12773;50.162;8.548;2022-10-22T08:53:13;17.40;99.90
24638;DHT22;12773;50.162;8.548;2022-10-22T08:56:03;17.40;99.90
24638;DHT22;12773;50.162;8.548;2022-10-22T08:59:08;17.10;99.90
24638;DHT22;12773;50.162;8.548;2022-10-22T09:01:51;17.00;99.90
24638;DHT22;12773;50.162;8.548;2022-10-22T09:04:48;16.90;99.90
24638;DHT22;12773;50.162;8.548;2022-10-22T09:07:30;17.10;99.90
24638;DHT22;12773;50.162;8.548;2022-10-22T09:10:19;17.50;99.90
24638;DHT22;12773;50.162;8.548;2022-10-22T09:13:10;17.90;99.90
24638;DHT22;12773;50.162;8.548;2022-10-22T09:16:13;18.00;99.90
24638;DHT22;12773;50.162;8.548;2022-10-22T09:19:03;18.40;99.90
24638;DHT22;12773;50.162;8.548;2022-10-22T09:21:57;18.70;99.90
24638;DHT22;12773;50.162;8.548;2022-10-22T09:24:48;18.80;99.90
24638;DHT22;12773;50.162;8.548;2022-10-22T09:27:36;18.70;99.90
24638;DHT22;12773;50.162;8.548;2022-10-22T09:30:26;18.80;99.90
24638;DHT22;12773;50.162;8.548;2022-10-22T09:33:26;18.70;99.90
24638;DHT22;12773;50.162;8.548;2022-10-22T09:36:20;18.60;99.90
24638;DHT22;12773;50.162;8.548;2022-10-22T09:39:25;18.60;99.90
24638;DHT22;12773;50.162;8.548;2022-10-22T09:42:15;18.70;99.90
24638;DHT22;12773;50.162;8.548;2022-10-22T09:45:05;18.80;99.90
24638;DHT22;12773;50.162;8.548;2022-10-22T09:51:14;19.40;99.90
24638;DHT22;12773;50.162;8.548;2022-10-22T09:54:12;19.50;99.90
24638;DHT22;12773;50.162;8.548;2022-10-22T09:56:54;19.90;99.90
24638;DHT22;12773;50.162;8.548;2022-10-22T09:59:46;20.20;99.90
24638;DHT22;12773;50.162;8.548;2022-10-22T10:02:32;20.30;99.90
24638;DHT22;12773;50.162;8.548;2022-10-22T10:05:34;20.20;99.90
24638;DHT22;12773;50.162;8.548;2022-10-22T10:08:18;20.40;99.90
24638;DHT22;12773;50.162;8.548;2022-10-22T10:11:17;20.30;99.90
24638;DHT22;12773;50.162;8.548;2022-10-22T10:14:06;20.50;99.90
24638;DHT22;12773;50.162;8.548;2022-10-22T10:17:04;20.60;99.90
24638;DHT22;12773;50.162;8.548;2022-10-22T10:26:33;20.80;99.90
24638;DHT22;12773;50.162;8.548;2022-10-22T10:32:46;20.80;99.90
24638;DHT22;12773;50.162;8.548;2022-10-22T10:35:30;20.80;99.90
24638;DHT22;12773;50.162;8.548;2022-10-22T10:38:37;20.90;99.90
24638;DHT22;12773;50.162;8.548;2022-10-22T10:44:47;20.60;99.90
24638;DHT22;12773;50.162;8.548;2022-10-22T10:47:43;20.50;99.90
24638;DHT22;12773;50.162;8.548;2022-10-22T10:54:00;19.90;99.90
24638;DHT22;12773;50.162;8.548;2022-10-22T10:56:52;19.90;99.90
24638;DHT22;12773;50.162;8.548;2022-10-22T11:06:08;20.70;99.90
24638;DHT22;12773;50.162;8.548;2022-10-22T11:08:55;21.00;99.90
24638;DHT22;12773;50.162;8.548;2022-10-22T11:11:47;20.80;99.90
24638;DHT22;12773;50.162;8.548;2022-10-22T11:14:50;20.60;99.90
24638;DHT22;12773;50.162;8.548;2022-10-22T11:17:41;20.60;99.90
24638;DHT22;12773;50.162;8.548;2022-10-22T11:23:36;20.70;99.90
24638;DHT22;12773;50.162;8.548;2022-10-22T11:26:40;20.60;99.90
24638;DHT22;12773;50.162;8.548;2022-10-22T11:29:27;20.40;99.90
24638;DHT22;12773;50.162;8.548;2022-10-22T11:32:19;20.30;99.90
24638;DHT22;12773;50.162;8.548;2022-10-22T11:35:14;20.10;99.90
24638;DHT22;12773;50.162;8.548;2022-10-22T11:37:57;19.90;99.90
24638;DHT22;12773;50.162;8.548;2022-10-22T11:41:08;19.90;99.90
24638;DHT22;12773;50.162;8.548;2022-10-22T11:44:04;19.80;99.90
24638;DHT22;12773;50.162;8.548;2022-10-22T11:50:42;19.70;99.90
24638;DHT22;12773;50.162;8.548;2022-10-22T11:52:40;20.00;99.90
24638;DHT22;12773;50.162;8.548;2022-10-22T11:55:50;20.20;99.90
24638;DHT22;12773;50.162;8.548;2022-10-22T12:01:40;19.90;99.90
24638;DHT22;12773;50.162;8.548;2022-10-22T12:04:41;19.80;99.90
24638;DHT22;12773;50.162;8.548;2022-10-22T12:07:52;19.60;99.90
24638;DHT22;12773;50.162;8.548;2022-10-22T12:10:27;19.40;99.90
24638;DHT22;12773;50.162;8.548;2022-10-22T12:13:26;19.60;99.90
24638;DHT22;12773;50.162;8.548;2022-10-22T12:16:14;19.80;99.90
24638;DHT22;12773;50.162;8.548;2022-10-22T12:22:28;19.70;99.90
24638;DHT22;12773;50.162;8.548;2022-10-22T12:25:21;19.80;99.90
24638;DHT22;12773;50.162;8.548;2022-10-22T12:28:11;19.60;99.90
24638;DHT22;12773;50.162;8.548;2022-10-22T12:31:01;19.60;99.90
24638;DHT22;12773;50.162;8.548;2022-10-22T12:33:59;19.60;99.90
24638;DHT22;12773;50.162;8.548;2022-10-22T12:36:48;19.80;99.90
24638;DHT22;12773;50.162;8.548;2022-10-22T12:39:36;20.00;99.90
24638;DHT22;12773;50.162;8.548;2022-10-22T12:42:24;20.30;99.90
24638;DHT22;12773;50.162;8.548;2022-10-22T12:45:12;20.60;99.90
24638;DHT22;12773;50.162;8.548;2022-10-22T12:48:02;20.90;99.90
24638;DHT22;12773;50.162;8.548;2022-10-22T12:50:52;21.30;99.90
24638;DHT22;12773;50.162;8.548;2022-10-22T12:53:55;21.30;99.90
24638;DHT22;12773;50.162;8.548;2022-10-22T12:56:42;21.30;99.90
24638;DHT22;12773;50.162;8.548;2022-10-22T12:59:36;21.00;99.90
24638;DHT22;12773;50.162;8.548;2022-10-22T13:02:26;20.90;99.90
24638;DHT22;12773;50.162;8.548;2022-10-22T13:05:22;21.20;99.90
24638;DHT22;12773;50.162;8.548;2022-10-22T13:08:17;21.40;99.90
24638;DHT22;12773;50.162;8.548;2022-10-22T13:11:10;21.70;99.90
24638;DHT22;12773;50.162;8.548;2022-10-22T13:14:03;21.50;99.90
24638;DHT22;12773;50.162;8.548;2022-10-22T13:17:14;21.50;99.90
24638;DHT22;12773;50.162;8.548;2022-10-22T13:20:10;21.30;99.90
24638;DHT22;12773;50.162;8.548;2022-10-22T13:23:04;21.00;99.90
24638;DHT22;12773;50.162;8.548;2022-10-22T13:26:12;20.90;99.90
24638;DHT22;12773;50.162;8.548;2022-10-22T13:28:59;20.80;99.90
24638;DHT22;12773;50.162;8.548;2022-10-22T13:31:49;20.90;99.90
24638;DHT22;12773;50.162;8.548;2022-10-22T13:34:37;21.00;99.90
24638;DHT22;12773;50.162;8.548;2022-10-22T13:37:27;21.00;99.90
24638;DHT22;12773;50.162;8.548;2022-10-22T13:40:15;21.00;99.90
24638;DHT22;12773;50.162;8.548;2022-10-22T13:43:03;21.20;99.90
24638;DHT22;12773;50.162;8.548;2022-10-22T13:45:58;21.30;99.90
24638;DHT22;12773;50.162;8.548;2022-10-22T13:48:47;21.20;99.90
24638;DHT22;12773;50.162;8.548;2022-10-22T13:51:35;21.40;99.90
24638;DHT22;12773;50.162;8.548;2022-10-22T13:54:24;21.70;99.90
24638;DHT22;12773;50.162;8.548;2022-10-22T13:57:11;21.90;99.90
24638;DHT22;12773;50.162;8.548;2022-10-22T13:59:58;22.10;99.90
24638;DHT22;12773;50.162;8.548;2022-10-22T14:02:48;21.90;99.90
24638;DHT22;12773;50.162;8.548;2022-10-22T14:05:35;21.70;99.90
24638;DHT22;12773;50.162;8.548;2022-10-22T14:08:24;21.50;99.90
24638;DHT22;12773;50.162;8.548;2022-10-22T14:11:13;21.30;99.90
24638;DHT22;12773;50.162;8.548;2022-10-22T14:14:01;21.30;99.90
24638;DHT22;12773;50.162;8.548;2022-10-22T14:16:53;21.30;99.90
24638;DHT22;12773;50.162;8.548;2022-10-22T14:19:41;21.20;99.90
24638;DHT22;12773;50.162;8.548;2022-10-22T14:22:29;21.20;99.90
24638;DHT22;12773;50.162;8.548;2022-10-22T14:25:18;21.40;99.90
24638;DHT22;12773;50.162;8.548;2022-10-22T14:28:09;21.60;99.90
24638;DHT22;12773;50.162;8.548;2022-10-22T14:30:56;21.50;99.90
24638;DHT22;12773;50.162;8.548;2022-10-22T14:33:43;21.40;99.90
24638;DHT22;12773;50.162;8.548;2022-10-22T14:36:31;21.30;99.90
24638;DHT22;12773;50.162;8.548;2022-10-22T14:39:19;21.10;99.90
24638;DHT22;12773;50.162;8.548;2022-10-22T14:42:12;21.10;99.90
24638;DHT22;12773;50.162;8.548;2022-10-22T14:45:01;21.10;99.90
24638;DHT22;12773;50.162;8.548;2022-10-22T14:47:49;21.20;99.90
24638;DHT22;12773;50.162;8.548;2022-10-22T14:50:37;21.30;99.90
24638;DHT22;12773;50.162;8.548;2022-10-22T14:53:25;21.20;99.90
24638;DHT22;12773;50.162;8.548;2022-10-22T14:56:15;21.20;99.90
24638;DHT22;12773;50.162;8.548;2022-10-22T14:59:02;21.10;99.90
24638;DHT22;12773;50.162;8.548;2022-10-22T15:01:49;21.10;99.90
24638;DHT22;12773;50.162;8.548;2022-10-22T15:04:37;21.20;99.90
24638;DHT22;12773;50.162;8.548;2022-10-22T15:07:24;21.30;99.90
24638;DHT22;12773;50.162;8.548;2022-10-22T15:10:12;21.30;99.90
24638;DHT22;12773;50.162;8.548;2022-10-22T15:12:59;21.30;99.90
24638;DHT22;12773;50.162;8.548;2022-10-22T15:15:46;21.30;99.90
24638;DHT22;12773;50.162;8.548;2022-10-22T15:18:34;21.10;99.90
24638;DHT22;12773;50.162;8.548;2022-10-22T15:21:22;21.10;99.90
24638;DHT22;12773;50.162;8.548;2022-10-22T15:24:10;20.90;99.90
24638;DHT22;12773;50.162;8.548;2022-10-22T15:26:57;20.70;99.90
24638;DHT22;12773;50.162;8.548;2022-10-22T15:29:45;20.60;99.90
24638;DHT22;12773;50.162;8.548;2022-10-22T15:32:33;20.50;99.90
24638;DHT22;12773;50.162;8.548;2022-10-22T15:35:20;20.50;99.90
24638;DHT22;12773;50.162;8.548;2022-10-22T15:38:08;20.40;99.90
24638;DHT22;12773;50.162;8.548;2022-10-22T15:41:03;20.30;99.90
24638;DHT22;12773;50.162;8.548;2022-10-22T15:43:52;20.20;99.90
24638;DHT22;12773;50.162;8.548;2022-10-22T15:46:39;20.20;99.90
24638;DHT22;12773;50.162;8.548;2022-10-22T15:49:27;20.20;99.90
24638;DHT22;12773;50.162;8.548;2022-10-22T15:52:15;20.20;99.90
24638;DHT22;12773;50.162;8.548;2022-10-22T15:55:02;20.20;99.90
24638;DHT22;12773;50.162;8.548;2022-10-22T15:57:53;20.20;99.90
24638;DHT22;12773;50.162;8.548;2022-10-22T16:00:42;20.30;99.90
24638;DHT22;12773;50.162;8.548;2022-10-22T16:03:29;20.20;99.90
24638;DHT22;12773;50.162;8.548;2022-10-22T16:06:17;20.20;99.90
24638;DHT22;12773;50.162;8.548;2022-10-22T16:09:07;20.10;99.90
24638;DHT22;12773;50.162;8.548;2022-10-22T16:11:55;20.00;99.90
24638;DHT22;12773;50.162;8.548;2022-10-22T16:14:43;19.90;99.90
24638;DHT22;12773;50.162;8.548;2022-10-22T16:17:30;19.70;99.90
24638;DHT22;12773;50.162;8.548;2022-10-22T16:20:17;19.60;99.90
24638;DHT22;12773;50.162;8.548;2022-10-22T16:23:05;19.40;99.90
24638;DHT22;12773;50.162;8.548;2022-10-22T16:25:52;19.10;99.90
24638;DHT22;12773;50.162;8.548;2022-10-22T16:28:41;18.80;99.90
24638;DHT22;12773;50.162;8.548;2022-10-22T16:31:29;18.70;99.90
24638;DHT22;12773;50.162;8.548;2022-10-22T16:34:16;18.40;99.90
24638;DHT22;12773;50.162;8.548;2022-10-22T16:37:04;18.20;99.90
24638;DHT22;12773;50.162;8.548;2022-10-22T16:39:52;18.00;99.90
24638;DHT22;12773;50.162;8.548;2022-10-22T16:42:40;17.90;99.90
24638;DHT22;12773;50.162;8.548;2022-10-22T16:45:28;17.70;99.90
24638;DHT22;12773;50.162;8.548;2022-10-22T16:48:16;17.50;99.90
24638;DHT22;12773;50.162;8.548;2022-10-22T16:51:09;17.30;99.90
24638;DHT22;12773;50.162;8.548;2022-10-22T16:53:57;17.10;99.90
24638;DHT22;12773;50.162;8.548;2022-10-22T16:56:44;17.10;99.90
24638;DHT22;12773;50.162;8.548;2022-10-22T16:59:31;17.00;99.90
24638;DHT22;12773;50.162;8.548;2022-10-22T17:02:20;17.00;99.90
24638;DHT22;12773;50.162;8.548;2022-10-22T17:05:07;17.00;99.90
24638;DHT22;12773;50.162;8.548;2022-10-22T17:07:55;16.80;99.90
24638;DHT22;12773;50.162;8.548;2022-10-22T17:10:42;16.70;99.90
24638;DHT22;12773;50.162;8.548;2022-10-22T17:13:29;16.50;99.90
24638;DHT22;12773;50.162;8.548;2022-10-22T17:16:18;16.30;99.90
24638;DHT22;12773;50.162;8.548;2022-10-22T17:19:06;16.10;99.90
24638;DHT22;12773;50.162;8.548;2022-10-22T17:21:53;15.90;99.90
24638;DHT22;12773;50.162;8.548;2022-10-22T17:24:40;15.80;99.90
24638;DHT22;12773;50.162;8.548;2022-10-22T17:27:29;15.70;99.90
24638;DHT22;12773;50.162;8.548;2022-10-22T17:30:18;15.60;99.90
24638;DHT22;12773;50.162;8.548;2022-10-22T17:33:08;15.60;99.90
24638;DHT22;12773;50.162;8.548;2022-10-22T17:35:55;15.50;99.90
24638;DHT22;12773;50.162;8.548;2022-10-22T17:38:42;15.40;99.90
24638;DHT22;12773;50.162;8.548;2022-10-22T17:41:33;15.30;99.90
24638;DHT22;12773;50.162;8.548;2022-10-22T17:44:21;15.20;99.90
24638;DHT22;12773;50.162;8.548;2022-10-22T17:47:09;15.10;99.90
24638;DHT22;12773;50.162;8.548;2022-10-22T17:49:56;15.10;99.90
24638;DHT22;12773;50.162;8.548;2022-10-22T17:52:44;15.10;99.90
24638;DHT22;12773;50.162;8.548;2022-10-22T17:55:32;15.00;99.90
24638;DHT22;12773;50.162;8.548;2022-10-22T17:58:20;15.00;99.90
24638;DHT22;12773;50.162;8.548;2022-10-22T18:01:19;15.00;99.90
24638;DHT22;12773;50.162;8.548;2022-10-22T18:04:06;14.90;99.90
24638;DHT22;12773;50.162;8.548;2022-10-22T18:06:55;14.90;99.90
24638;DHT22;12773;50.162;8.548;2022-10-22T18:09:42;14.80;99.90
24638;DHT22;12773;50.162;8.548;2022-10-22T18:12:29;14.80;99.90
24638;DHT22;12773;50.162;8.548;2022-10-22T18:15:17;14.80;99.90
24638;DHT22;12773;50.162;8.548;2022-10-22T18:18:04;14.70;99.90
24638;DHT22;12773;50.162;8.548;2022-10-22T18:20:52;14.70;99.90
24638;DHT22;12773;50.162;8.548;2022-10-22T18:23:39;14.50;99.90
24638;DHT22;12773;50.162;8.548;2022-10-22T18:26:26;14.50;99.90
24638;DHT22;12773;50.162;8.548;2022-10-22T18:29:16;14.50;99.90
24638;DHT22;12773;50.162;8.548;2022-10-22T18:32:03;14.50;99.90
24638;DHT22;12773;50.162;8.548;2022-10-22T18:34:53;14.30;99.90
24638;DHT22;12773;50.162;8.548;2022-10-22T18:37:40;14.30;99.90
24638;DHT22;12773;50.162;8.548;2022-10-22T18:40:28;14.20;99.90
24638;DHT22;12773;50.162;8.548;2022-10-22T18:43:16;14.20;99.90